Aripeka, Florida
Current Conditions -  °F | °C
As of 7:53 AM on Wednesday 22 Oct 2014 (Local Time) from KBKV Reporting Station
Haze Haze  
Wind Chill: 60°   Ceiling: NA
Heat Index: 60°   Visibility: 5mi
Dew Point: 59°   Wind: 0mph
Humidity: 96%   Direction: NA
Pressure: 29.99"   Gusts: NA
Location:  28.43°N, 82.66°W
Report Text: KBKV 221153Z 00000KT 5SM BR 16/15 A2999 RMK AO2 SLP154 T01560150 10183 20150 51013
Loading
Personal Weather Stations






























Interactive Weather Map
Tropical Storm Tracking
New forecast layout! Learn more

10-Day Weather Forecast

Advertisements
Track Severe Weather on mobile